Time;durP1;ratioP1;P1;durP2;ratioP2;P2;SDS_P1;SDS_P2;PMS_P1;PMS_P2;Temp;Humidity;BMP_temperature;BMP_pressure;BME280_temperature;BME280_humidity;BME280_pressure;Samples;Min_cycle;Max_cycle;Signal;HPM_P1;HPM_P2
2022/09/28 00:00:16;;;;;;;;;3.00;3.00;;;;;22.08;55.03;99031.62;110415;1264;13117;-61
2022/09/28 00:03:05;;;;;;;;;2.00;2.00;;;;;22.07;55.01;99031.34;110396;1264;13769;-61
2022/09/28 00:05:33;;;;;;;;;2.00;2.00;;;;;22.07;55.04;99033.55;110401;1264;13882;-61
2022/09/28 00:08:00;;;;;;;;;3.00;2.67;;;;;22.08;54.94;99032.29;110326;1264;14644;-61
2022/09/28 00:10:28;;;;;;;;;2.00;2.00;;;;;22.06;55.01;99028.90;110296;1264;13069;-60
2022/09/28 00:12:55;;;;;;;;;2.00;2.00;;;;;22.07;54.84;99022.86;110449;1264;21479;-63
2022/09/28 00:15:23;;;;;;;;;2.00;2.00;;;;;22.07;54.82;99023.57;110466;1264;14283;-61
2022/09/28 00:17:50;;;;;;;;;2.00;2.00;;;;;22.06;54.79;99021.14;110507;1264;14705;-61
2022/09/28 00:20:18;;;;;;;;;3.00;2.00;;;;;22.07;54.78;99022.31;110452;1264;14320;-62
2022/09/28 00:22:46;;;;;;;;;2.00;2.00;;;;;22.06;54.75;99019.08;110504;1264;12246;-61
2022/09/28 00:25:15;;;;;;;;;2.00;2.00;;;;;22.08;54.81;99023.44;110427;1264;16332;-62
2022/09/28 00:27:44;;;;;;;;;3.00;3.00;;;;;22.05;54.81;99015.33;110449;1264;14760;-60
2022/09/28 00:30:15;;;;;;;;;3.67;3.00;;;;;22.07;54.77;99017.57;110441;1264;14142;-61
2022/09/28 00:32:42;;;;;;;;;3.00;2.67;;;;;22.05;54.80;99012.33;110418;1264;13581;-61
2022/09/28 00:35:10;;;;;;;;;2.00;2.00;;;;;22.06;54.77;99014.80;110409;1264;13484;-60
2022/09/28 00:37:38;;;;;;;;;3.00;3.00;;;;;22.06;54.72;99014.23;110396;1265;12901;-61
2022/09/28 00:40:05;;;;;;;;;2.00;2.00;;;;;22.07;54.75;99015.38;110457;1264;13195;-61
2022/09/28 00:42:33;;;;;;;;;2.00;2.00;;;;;22.06;54.69;99012.70;110463;1264;14768;-61
2022/09/28 00:45:00;;;;;;;;;2.00;2.00;;;;;22.06;54.70;99013.83;110435;1264;14343;-59
2022/09/28 00:47:27;;;;;;;;;2.00;2.00;;;;;22.05;54.75;99012.16;110455;1265;14249;-61
2022/09/28 00:49:55;;;;;;;;;2.00;2.00;;;;;22.06;54.70;99013.94;110454;1264;14955;-61
2022/09/28 00:52:22;;;;;;;;;5.00;3.00;;;;;22.06;54.69;99011.53;110343;1264;12800;-60
2022/09/28 00:54:50;;;;;;;;;2.00;2.00;;;;;22.05;54.68;99013.20;110387;1264;14259;-60
2022/09/28 00:57:17;;;;;;;;;3.00;2.00;;;;;22.07;54.67;99009.77;110467;1264;13994;-61
2022/09/28 00:59:45;;;;;;;;;2.00;2.00;;;;;22.07;54.69;99013.20;110341;1264;14655;-60
2022/09/28 01:02:12;;;;;;;;;2.00;2.00;;;;;22.06;54.70;99014.75;110406;1264;14387;-61
2022/09/28 01:04:39;;;;;;;;;2.33;2.00;;;;;22.06;54.66;99016.48;110476;1264;12941;-60
2022/09/28 01:07:07;;;;;;;;;3.00;3.00;;;;;22.07;54.59;99010.13;110434;1265;16459;-60
2022/09/28 01:09:35;;;;;;;;;2.00;2.00;;;;;22.05;54.56;99010.48;110424;1264;12567;-63
2022/09/28 01:12:02;;;;;;;;;2.00;2.00;;;;;22.06;54.61;99012.40;110429;1264;12632;-61
2022/09/28 01:14:30;;;;;;;;;3.00;3.00;;;;;22.04;54.54;99006.08;110409;1264;13096;-61
2022/09/28 01:16:57;;;;;;;;;4.00;3.00;;;;;22.06;54.51;99009.30;110456;1264;13399;-59
2022/09/28 01:19:25;;;;;;;;;2.00;2.00;;;;;22.05;54.50;99008.30;110492;1264;12865;-60
2022/09/28 01:21:52;;;;;;;;;3.00;3.00;;;;;22.05;54.48;99010.70;110412;1264;14239;-61
2022/09/28 01:24:20;;;;;;;;;2.00;2.00;;;;;22.06;54.47;99011.48;110460;1264;14473;-62
2022/09/28 01:26:47;;;;;;;;;2.67;2.67;;;;;22.06;54.45;99011.74;110532;1264;14190;-62
2022/09/28 01:29:14;;;;;;;;;4.33;4.33;;;;;22.06;54.51;99010.82;110448;1264;14294;-62
2022/09/28 01:31:42;;;;;;;;;3.00;3.00;;;;;22.04;54.45;99006.73;110507;1264;12899;-60
2022/09/28 01:34:09;;;;;;;;;3.00;3.00;;;;;22.05;54.36;99008.27;110450;1264;14617;-61
2022/09/28 01:36:37;;;;;;;;;2.00;2.00;;;;;22.04;54.42;99011.92;110439;1264;14454;-60
2022/09/28 01:39:04;;;;;;;;;2.00;2.00;;;;;22.05;54.43;99012.79;110448;1264;14405;-61
2022/09/28 01:41:32;;;;;;;;;2.00;2.00;;;;;22.04;54.39;99010.92;110427;1264;14291;-62
2022/09/28 01:44:01;;;;;;;;;5.00;5.00;;;;;22.03;54.43;99009.38;110461;1265;13349;-61
2022/09/28 01:46:29;;;;;;;;;2.00;2.00;;;;;22.03;54.37;99006.14;110486;1264;13150;-62
2022/09/28 01:48:56;;;;;;;;;3.00;2.00;;;;;22.03;54.33;99005.05;110460;1264;14341;-61
2022/09/28 01:51:23;;;;;;;;;2.00;2.00;;;;;22.03;54.41;99002.67;110450;1264;13251;-61
2022/09/28 01:53:51;;;;;;;;;3.67;3.67;;;;;22.03;54.33;99003.59;110439;1265;19024;-61
2022/09/28 01:56:18;;;;;;;;;2.00;2.00;;;;;22.03;54.39;99002.04;110440;1264;13371;-61
2022/09/28 01:58:46;;;;;;;;;2.33;2.00;;;;;22.02;54.34;99003.13;110492;1264;12966;-62
2022/09/28 02:01:13;;;;;;;;;3.00;3.00;;;;;22.02;54.34;98999.24;110442;1264;14160;-60
2022/09/28 02:03:41;;;;;;;;;2.67;2.67;;;;;22.02;54.31;98995.42;110450;1264;14680;-61
2022/09/28 02:06:08;;;;;;;;;2.00;2.00;;;;;22.01;54.27;98994.76;110477;1265;15257;-61
2022/09/28 02:08:36;;;;;;;;;4.00;3.00;;;;;22.02;54.19;98997.02;110491;1263;15935;-60
2022/09/28 02:11:03;;;;;;;;;2.00;2.00;;;;;22.01;54.24;98991.27;110474;1264;14756;-60
2022/09/28 02:13:31;;;;;;;;;2.33;2.00;;;;;22.00;54.19;98988.89;110533;1264;13347;-61
2022/09/28 02:15:58;;;;;;;;;2.00;2.00;;;;;22.00;54.21;98992.48;110436;1264;14288;-62
2022/09/28 02:18:26;;;;;;;;;2.67;2.67;;;;;22.01;54.20;98991.48;110486;1264;13880;-62
2022/09/28 02:20:53;;;;;;;;;1.67;1.67;;;;;22.02;54.21;98991.17;110474;1262;14514;-61
2022/09/28 02:23:20;;;;;;;;;3.00;3.00;;;;;22.00;54.15;98987.98;110444;1265;14584;-62
2022/09/28 02:25:48;;;;;;;;;4.00;4.00;;;;;22.00;54.12;98986.58;110470;1265;12920;-62
2022/09/28 02:28:16;;;;;;;;;2.00;2.00;;;;;22.01;54.14;98983.30;110379;1264;14262;-62
2022/09/28 02:30:43;;;;;;;;;2.33;2.33;;;;;22.01;54.08;98979.15;110424;1265;13603;-61
2022/09/28 02:33:11;;;;;;;;;3.00;2.00;;;;;22.01;54.03;98978.56;110501;1264;13177;-61
2022/09/28 02:35:38;;;;;;;;;2.67;2.67;;;;;22.01;54.08;98976.97;110445;1264;13649;-63
2022/09/28 02:38:06;;;;;;;;;3.67;3.00;;;;;22.02;54.07;98977.63;110440;1265;13738;-61
2022/09/28 02:40:34;;;;;;;;;3.00;3.00;;;;;22.01;53.97;98980.08;110483;1264;12923;-63
2022/09/28 02:43:01;;;;;;;;;3.00;3.00;;;;;22.02;54.03;98984.04;110491;1264;13808;-60
2022/09/28 02:45:28;;;;;;;;;2.00;2.00;;;;;22.01;54.05;98981.38;110496;1264;13319;-61
2022/09/28 02:47:56;;;;;;;;;3.00;3.00;;;;;22.02;54.00;98980.85;110475;1264;13854;-61
2022/09/28 02:50:23;;;;;;;;;2.00;2.00;;;;;22.02;53.99;98977.25;110452;1264;13726;-60
2022/09/28 02:52:51;;;;;;;;;3.00;3.00;;;;;22.02;53.95;98975.85;110499;1264;13154;-60
2022/09/28 02:55:18;;;;;;;;;2.00;2.00;;;;;22.02;54.00;98974.27;110476;1264;13690;-61
2022/09/28 02:57:45;;;;;;;;;2.00;2.00;;;;;22.02;54.05;98971.92;110452;1265;14461;-64
2022/09/28 03:00:13;;;;;;;;;2.00;2.00;;;;;22.03;54.04;98969.27;110456;1262;14104;-62
2022/09/28 03:02:40;;;;;;;;;5.00;2.00;;;;;22.00;54.12;98969.96;110330;1264;13197;-60
2022/09/28 03:05:08;;;;;;;;;2.00;2.00;;;;;22.00;54.08;98969.42;110386;1264;13149;-59
2022/09/28 03:07:35;;;;;;;;;5.00;3.00;;;;;22.00;54.01;98967.20;110484;1264;13008;-61
2022/09/28 03:10:03;;;;;;;;;2.00;2.00;;;;;21.99;54.12;98971.77;110466;1263;13253;-62
2022/09/28 03:12:32;;;;;;;;;5.00;4.33;;;;;21.99;54.14;98970.84;110427;1265;13661;-59
2022/09/28 03:14:59;;;;;;;;;3.00;3.00;;;;;22.00;54.08;98972.39;110447;1265;14204;-61
2022/09/28 03:17:26;;;;;;;;;2.00;2.00;;;;;21.99;54.06;98974.97;110474;1264;15393;-60
2022/09/28 03:19:54;;;;;;;;;5.00;3.00;;;;;21.98;54.06;98975.39;110486;1264;13037;-61
2022/09/28 03:22:21;;;;;;;;;3.00;3.00;;;;;21.99;54.12;98981.18;110462;1264;12771;-60
2022/09/28 03:24:48;;;;;;;;;2.33;2.33;;;;;21.99;54.01;98982.73;110443;1265;14491;-60
2022/09/28 03:27:16;;;;;;;;;2.00;2.00;;;;;22.00;53.97;98985.37;110444;1264;14273;-61
2022/09/28 03:29:43;;;;;;;;;3.00;3.00;;;;;21.99;53.99;98981.92;110454;1264;14016;-61
2022/09/28 03:32:11;;;;;;;;;3.00;2.67;;;;;21.98;53.98;98980.14;110461;1264;14929;-60
2022/09/28 03:34:38;;;;;;;;;2.33;2.00;;;;;21.99;53.94;98979.33;110502;1264;11975;-59
2022/09/28 03:37:05;;;;;;;;;3.00;2.33;;;;;21.98;53.90;98980.63;110428;1264;13161;-61
2022/09/28 03:39:33;;;;;;;;;3.00;3.00;;;;;21.98;53.91;98982.65;110439;1265;14405;-60
2022/09/28 03:42:00;;;;;;;;;2.00;2.00;;;;;21.99;53.87;98985.67;110476;1265;13727;-62
2022/09/28 03:44:27;;;;;;;;;2.00;2.00;;;;;21.98;53.85;98983.20;110407;1265;14834;-62
2022/09/28 03:46:55;;;;;;;;;2.33;2.33;;;;;21.99;53.86;98986.05;110491;1265;12452;-59
2022/09/28 03:49:22;;;;;;;;;2.00;2.00;;;;;21.99;53.79;98988.23;110486;1264;13014;-61
2022/09/28 03:51:50;;;;;;;;;3.00;3.00;;;;;22.00;53.76;98993.16;110440;1264;12755;-61
2022/09/28 03:54:17;;;;;;;;;4.33;2.00;;;;;21.99;53.68;98991.40;110439;1265;15124;-61
2022/09/28 03:56:45;;;;;;;;;3.00;2.00;;;;;22.00;53.68;98992.78;110502;1264;14209;-62
2022/09/28 03:59:12;;;;;;;;;3.00;2.00;;;;;21.99;53.60;98990.87;110478;1264;14537;-61
2022/09/28 04:01:40;;;;;;;;;3.00;2.00;;;;;22.00;53.68;98990.98;110547;1264;12626;-62
2022/09/28 04:04:07;;;;;;;;;5.00;3.00;;;;;21.99;53.76;98986.55;110400;1265;14490;-61
2022/09/28 04:06:35;;;;;;;;;2.00;2.00;;;;;21.99;53.73;98988.13;110425;1264;14684;-58
2022/09/28 04:09:02;;;;;;;;;2.00;2.00;;;;;21.99;53.70;98991.06;110457;1264;14432;-60
2022/09/28 04:11:29;;;;;;;;;2.00;2.00;;;;;21.99;53.71;98990.57;110482;1264;14336;-61
2022/09/28 04:13:57;;;;;;;;;3.00;3.00;;;;;21.98;53.76;98986.06;110503;1264;14393;-62
2022/09/28 04:16:24;;;;;;;;;2.00;2.00;;;;;21.97;53.73;98986.83;110475;1264;13102;-63
2022/09/28 04:18:52;;;;;;;;;2.00;2.00;;;;;21.98;53.70;98990.21;110439;1263;14460;-61
2022/09/28 04:21:19;;;;;;;;;3.00;2.33;;;;;21.97;53.76;98991.02;110403;1264;14536;-59
2022/09/28 04:23:47;;;;;;;;;2.67;2.67;;;;;21.97;53.71;98989.69;110474;1265;14374;-61
2022/09/28 04:26:16;;;;;;;;;2.00;2.00;;;;;21.97;53.66;98992.28;110461;1264;13854;-61
2022/09/28 04:31:28;;;;;;;;;2.00;2.00;;;;;21.97;53.52;98988.08;110466;1264;13102;-62
2022/09/28 04:33:56;;;;;;;;;2.67;2.00;;;;;21.96;53.62;98990.40;110467;1264;14077;-61
2022/09/28 04:36:23;;;;;;;;;3.00;2.00;;;;;21.96;53.61;98993.81;110451;1264;14297;-61
2022/09/28 04:38:51;;;;;;;;;5.00;5.00;;;;;21.96;53.55;98989.14;110432;1264;14171;-61
2022/09/28 04:41:18;;;;;;;;;2.00;2.00;;;;;21.97;53.56;98993.25;110444;1264;14566;-62
2022/09/28 04:43:46;;;;;;;;;4.00;3.00;;;;;21.97;53.60;98990.80;110458;1264;13215;-62
2022/09/28 04:46:13;;;;;;;;;3.00;3.00;;;;;21.97;53.61;98995.17;110405;1264;14405;-60
2022/09/28 04:48:40;;;;;;;;;5.00;3.67;;;;;21.97;53.54;98993.96;110410;1265;14266;-62
2022/09/28 04:51:08;;;;;;;;;3.67;3.67;;;;;21.96;53.44;98991.88;110434;1264;14683;-61
2022/09/28 04:53:35;;;;;;;;;6.67;5.67;;;;;21.99;53.39;98994.94;110446;1265;15230;-62
2022/09/28 04:56:03;;;;;;;;;5.00;3.00;;;;;22.04;53.45;99001.69;110438;1264;13154;-62
2022/09/28 04:58:31;;;;;;;;;3.00;3.00;;;;;22.08;54.17;98998.83;110460;1264;13053;-60
2022/09/28 05:00:58;;;;;;;;;2.67;2.67;;;;;22.09;54.37;99003.70;110412;1262;14335;-62
2022/09/28 05:03:25;;;;;;;;;7.00;6.00;;;;;22.09;54.38;99011.38;110311;1264;13787;-58
2022/09/28 05:05:53;;;;;;;;;3.00;3.00;;;;;22.09;54.22;99010.29;110405;1262;13817;-61
2022/09/28 05:08:20;;;;;;;;;3.67;3.00;;;;;22.10;54.46;99011.13;110411;1264;12904;-61
2022/09/28 05:10:48;;;;;;;;;6.00;3.00;;;;;22.07;54.24;99011.09;110422;1264;12846;-59
2022/09/28 05:13:17;;;;;;;;;3.00;3.00;;;;;22.10;54.46;99017.04;110343;1264;14209;-60
2022/09/28 05:15:44;;;;;;;;;5.00;5.00;;;;;22.08;54.41;99017.55;110416;1264;13504;-60
2022/09/28 05:18:13;;;;;;;;;6.00;5.00;;;;;22.09;54.33;99020.73;110415;1264;14776;-58
2022/09/28 05:20:40;;;;;;;;;3.00;3.00;;;;;22.09;54.33;99023.42;110459;1262;14342;-61
2022/09/28 05:23:07;;;;;;;;;6.00;6.00;;;;;22.09;54.40;99018.73;110439;1262;14774;-61
2022/09/28 05:25:35;;;;;;;;;5.33;5.00;;;;;22.09;54.38;99021.45;110416;1265;12462;-62
2022/09/28 05:28:03;;;;;;;;;3.00;3.00;;;;;22.09;54.48;99021.04;110386;1264;14402;-60
2022/09/28 05:30:30;;;;;;;;;4.33;3.67;;;;;22.11;54.44;99019.30;110257;1264;14377;-60
2022/09/28 05:32:58;;;;;;;;;5.00;5.00;;;;;22.13;54.54;99017.19;110216;1265;14062;-59
2022/09/28 05:35:25;;;;;;;;;5.33;5.33;;;;;22.20;54.86;99011.48;110378;1265;14388;-61
2022/09/28 05:37:53;;;;;;;;;158.50;137.00;;;;;22.22;54.80;99014.22;110547;1264;12703;-60
2022/09/28 05:40:21;;;;;;;;;177.25;154.25;;;;;22.25;55.10;99014.20;110448;1264;14902;-63
2022/09/28 05:42:48;;;;;;;;;111.00;96.25;;;;;22.20;55.61;99017.04;110444;1264;14308;-62
2022/09/28 05:45:16;;;;;;;;;88.00;68.00;;;;;22.18;55.89;99019.66;110444;1265;13581;-62
2022/09/28 05:47:44;;;;;;;;;71.33;57.00;;;;;22.17;55.98;99018.27;110425;1262;12745;-59
2022/09/28 05:50:14;;;;;;;;;64.67;51.00;;;;;22.17;55.98;99017.56;110363;1264;13857;-59
2022/09/28 05:52:42;;;;;;;;;54.00;43.33;;;;;22.16;55.98;99014.85;110502;1264;12146;-59
2022/09/28 05:55:10;;;;;;;;;60.00;45.00;;;;;22.17;56.08;99016.17;110417;1264;13781;-59
2022/09/28 05:57:37;;;;;;;;;47.67;40.67;;;;;22.17;56.09;99014.06;110341;1264;13874;-60
2022/09/28 06:00:05;;;;;;;;;42.00;36.00;;;;;22.18;56.05;99008.20;110383;1264;13218;-61
2022/09/28 06:02:32;;;;;;;;;34.50;30.50;;;;;22.16;56.05;99007.70;110457;1262;13838;-60
2022/09/28 06:05:00;;;;;;;;;33.33;30.00;;;;;22.13;56.19;99007.63;110438;1264;13314;-60
2022/09/28 06:07:27;;;;;;;;;37.33;27.33;;;;;22.15;55.96;99006.26;110413;1264;12960;-60
2022/09/28 06:09:55;;;;;;;;;23.00;23.00;;;;;22.13;55.57;99012.83;110245;1264;13325;-60
2022/09/28 06:12:22;;;;;;;;;23.00;21.67;;;;;22.15;55.47;99014.23;110346;1264;14053;-59
2022/09/28 06:14:49;;;;;;;;;21.33;20.00;;;;;22.10;55.38;99011.30;110355;1264;13282;-62
2022/09/28 06:17:17;;;;;;;;;18.67;18.33;;;;;21.99;54.74;99008.12;110364;1264;13848;-60
2022/09/28 06:19:44;;;;;;;;;16.00;14.50;;;;;21.92;54.07;99003.58;110457;1264;13109;-60
2022/09/28 06:22:12;;;;;;;;;18.33;16.00;;;;;21.86;53.57;99007.58;110430;1265;14069;-59
2022/09/28 06:24:39;;;;;;;;;20.00;15.50;;;;;21.82;53.26;99009.52;110440;1264;14360;-61
2022/09/28 06:27:06;;;;;;;;;15.00;14.00;;;;;21.79;53.00;99012.23;110437;1264;13435;-59
2022/09/28 06:29:34;;;;;;;;;11.00;11.00;;;;;21.78;52.68;99010.41;110457;1264;14469;-59
2022/09/28 06:32:01;;;;;;;;;11.67;11.67;;;;;21.77;52.38;99010.96;110473;1264;14272;-61
2022/09/28 06:34:29;;;;;;;;;14.00;13.50;;;;;21.75;52.05;99011.39;110447;1264;13212;-61
2022/09/28 06:36:56;;;;;;;;;14.00;13.00;;;;;21.74;51.99;99010.70;110420;1264;13312;-60
2022/09/28 06:39:23;;;;;;;;;13.67;11.00;;;;;21.72;51.69;99015.80;110348;1264;13270;-62
2022/09/28 06:41:51;;;;;;;;;9.33;9.00;;;;;21.72;51.57;99015.58;110266;1264;14975;-61
2022/09/28 06:44:18;;;;;;;;;9.00;9.00;;;;;21.72;51.37;99015.67;110377;1264;14866;-61
2022/09/28 06:46:46;;;;;;;;;11.00;11.00;;;;;21.72;51.25;99014.79;110453;1264;13236;-61
2022/09/28 06:49:13;;;;;;;;;10.67;9.00;;;;;21.69;51.25;99016.86;110454;1264;14523;-59
2022/09/28 06:51:41;;;;;;;;;11.00;10.67;;;;;21.69;51.31;99016.07;110445;1264;14256;-62
2022/09/28 06:54:08;;;;;;;;;10.00;10.00;;;;;21.74;51.24;99016.11;110342;1265;14284;-60
2022/09/28 06:56:36;;;;;;;;;7.00;7.00;;;;;21.76;50.94;99017.73;110417;1264;13546;-57
2022/09/28 06:59:03;;;;;;;;;9.50;9.00;;;;;21.80;50.87;99020.48;110467;1264;14271;-60
2022/09/28 07:01:30;;;;;;;;;10.00;9.00;;;;;21.77;50.93;99020.05;110512;1264;12694;-60
2022/09/28 07:04:00;;;;;;;;;10.67;10.00;;;;;21.75;50.87;99019.20;110434;1264;13645;-60
2022/09/28 07:06:29;;;;;;;;;10.00;9.50;;;;;21.74;50.68;99020.09;110376;1264;13577;-60
2022/09/28 07:08:58;;;;;;;;;13.00;10.00;;;;;21.72;50.75;99020.20;110303;1264;13094;-58
2022/09/28 07:11:27;;;;;;;;;10.67;10.67;;;;;21.70;50.60;99022.52;110405;1264;13759;-58
2022/09/28 07:13:55;;;;;;;;;12.50;9.00;;;;;21.64;50.49;99026.48;110265;1265;13084;-59
2022/09/28 07:16:23;;;;;;;;;10.33;9.00;;;;;21.56;50.47;99031.09;110356;1264;15226;-59
2022/09/28 07:18:50;;;;;;;;;11.33;9.33;;;;;21.59;50.36;99028.54;110447;1264;14637;-59
2022/09/28 07:21:17;;;;;;;;;7.00;7.00;;;;;21.61;50.27;99028.40;110360;1264;15041;-60
2022/09/28 07:23:45;;;;;;;;;13.50;13.00;;;;;21.65;50.30;99032.02;110234;1265;15125;-57
2022/09/28 07:26:13;;;;;;;;;15.00;14.00;;;;;21.62;50.11;99032.25;110372;1265;14291;-58
2022/09/28 07:28:41;;;;;;;;;18.33;14.00;;;;;21.59;49.92;99035.00;110476;1264;13028;-61
2022/09/28 07:31:09;;;;;;;;;13.67;13.33;;;;;21.59;49.81;99029.55;110415;1264;14836;-61
2022/09/28 07:33:37;;;;;;;;;14.33;13.67;;;;;21.59;49.79;99027.83;110379;1265;13806;-59
2022/09/28 07:36:05;;;;;;;;;13.33;12.33;;;;;21.61;49.86;99025.23;110102;1264;325878;-59
2022/09/28 07:38:33;;;;;;;;;16.00;15.00;;;;;21.65;49.73;99024.16;110431;1264;13179;-62
2022/09/28 07:41:13;;;;;;;;;17.00;17.00;;;;;21.66;49.41;99026.71;110477;1264;13181;-59
2022/09/28 07:43:40;;;;;;;;;15.00;11.00;;;;;21.67;49.40;99024.51;110716;1265;13264;-59
2022/09/28 07:46:10;;;;;;;;;21.00;17.50;;;;;21.66;49.08;99019.29;110314;1264;12697;-61
2022/09/28 07:48:38;;;;;;;;;18.67;16.33;;;;;21.48;48.71;99022.94;110244;1264;13119;-59
2022/09/28 07:51:05;;;;;;;;;23.00;21.00;;;;;21.24;48.81;99026.37;110407;1265;13162;-60
2022/09/28 07:53:32;;;;;;;;;26.67;21.67;;;;;21.14;48.78;99026.43;110410;1264;14476;-59
2022/09/28 07:56:03;;;;;;;;;21.00;19.00;;;;;21.02;48.68;99031.38;110477;1264;13174;-60
2022/09/28 07:58:31;;;;;;;;;18.33;15.00;;;;;20.88;48.69;99031.77;110426;1264;13335;-58
2022/09/28 08:00:59;;;;;;;;;22.00;18.50;;;;;20.78;48.73;99033.26;110358;1265;15263;-60
2022/09/28 08:03:27;;;;;;;;;21.50;19.00;;;;;20.76;48.67;99040.76;110384;1265;21686;-59
2022/09/28 08:05:55;;;;;;;;;23.67;21.00;;;;;20.72;48.62;99040.57;110430;1264;14368;-60
2022/09/28 08:08:22;;;;;;;;;22.33;17.67;;;;;20.68;48.50;99039.49;110416;1264;14720;-56
2022/09/28 08:10:51;;;;;;;;;17.00;14.00;;;;;20.60;48.54;99039.97;110484;1264;12797;-59
2022/09/28 08:13:18;;;;;;;;;20.00;18.67;;;;;20.63;48.57;99040.99;110353;1264;15147;-58
2022/09/28 08:15:50;;;;;;;;;17.33;16.33;;;;;20.48;48.89;99037.96;110447;1264;13252;-58
2022/09/28 08:18:18;;;;;;;;;18.67;16.00;;;;;20.70;48.61;99042.67;110434;1264;14470;-59
2022/09/28 08:23:30;;;;;;;;;15.00;14.00;;;;;20.67;48.04;99047.13;110403;1264;13020;-62
2022/09/28 08:25:58;;;;;;;;;21.00;17.00;;;;;20.72;48.01;99043.08;110467;1264;13180;-59
2022/09/28 08:28:25;;;;;;;;;20.67;16.67;;;;;20.68;47.79;99042.10;110280;1264;14808;-59
2022/09/28 08:30:53;;;;;;;;;18.00;14.00;;;;;20.63;47.97;99038.15;110245;1265;15182;-60
2022/09/28 08:33:21;;;;;;;;;16.00;13.00;;;;;20.64;47.90;99035.88;111390;1264;13161;-57
2022/09/28 08:35:48;;;;;;;;;16.33;15.33;;;;;20.64;47.96;99042.55;111383;1264;14428;-60
2022/09/28 08:38:16;;;;;;;;;14.00;13.00;;;;;20.50;47.94;99044.74;110343;1262;13594;-58
2022/09/28 08:40:44;;;;;;;;;16.33;14.67;;;;;20.46;47.88;99044.77;110397;1264;12740;-58
2022/09/28 08:43:11;;;;;;;;;14.00;13.33;;;;;20.51;47.78;99044.81;110369;1264;17360;-58
2022/09/28 08:45:39;;;;;;;;;12.00;10.00;;;;;20.57;47.64;99044.58;110443;1264;14787;-59
2022/09/28 08:50:51;;;;;;;;;17.50;16.50;;;;;20.52;47.67;99045.02;110444;1263;14887;-61
2022/09/28 08:53:18;;;;;;;;;13.00;12.00;;;;;20.50;47.75;99046.50;110419;1265;13157;-56
2022/09/28 08:55:46;;;;;;;;;17.67;16.00;;;;;20.48;47.75;99044.12;110490;1265;13204;-59
2022/09/28 08:58:13;;;;;;;;;14.00;13.50;;;;;20.48;47.61;99044.53;110454;1264;14640;-56
2022/09/28 09:00:41;;;;;;;;;12.50;12.00;;;;;20.40;47.88;99047.48;110437;1265;12648;-57
2022/09/28 09:03:08;;;;;;;;;12.00;10.00;;;;;20.39;47.87;99049.11;110434;1262;14179;-59
2022/09/28 09:05:36;;;;;;;;;13.00;12.50;;;;;20.42;47.96;99043.15;110399;1262;14371;-61
2022/09/28 09:08:03;;;;;;;;;16.00;13.00;;;;;20.43;48.17;99047.59;110482;1264;12895;-60
2022/09/28 09:10:32;;;;;;;;;17.00;14.67;;;;;20.44;48.16;99044.31;110441;1264;14425;-61
2022/09/28 09:13:00;;;;;;;;;17.00;13.00;;;;;20.46;48.15;99041.77;110381;1264;14468;-57
2022/09/28 09:15:27;;;;;;;;;15.33;13.67;;;;;20.43;48.00;99046.50;110392;1264;14395;-55
2022/09/28 09:17:55;;;;;;;;;21.00;17.00;;;;;20.38;47.92;99045.77;110392;1262;14459;-61
2022/09/28 09:20:22;;;;;;;;;18.00;17.00;;;;;20.40;47.98;99042.90;110390;1264;14325;-62
2022/09/28 09:22:49;;;;;;;;;13.00;13.00;;;;;20.25;48.27;99047.43;110370;1265;13166;-57
2022/09/28 09:25:17;;;;;;;;;13.00;12.67;;;;;20.17;48.41;99051.56;110376;1262;14109;-57
2022/09/28 09:27:44;;;;;;;;;14.33;13.00;;;;;20.13;48.53;99056.63;110416;1264;14707;-60
2022/09/28 09:30:11;;;;;;;;;15.33;13.00;;;;;20.28;48.17;99058.27;110395;1264;14002;-60
2022/09/28 09:32:40;;;;;;;;;13.00;13.00;;;;;20.34;48.00;99059.22;110361;1264;13236;-58
2022/09/28 09:35:07;;;;;;;;;20.00;17.50;;;;;20.27;47.97;99060.20;110518;1264;12852;-56
2022/09/28 09:37:35;;;;;;;;;16.00;15.33;;;;;20.39;47.84;99057.90;110426;1265;13124;-57
2022/09/28 09:40:02;;;;;;;;;19.00;14.00;;;;;20.36;47.70;99062.52;110443;1262;13615;-61
2022/09/28 09:42:30;;;;;;;;;20.00;17.00;;;;;20.33;47.73;99062.05;110443;1265;13615;-56
2022/09/28 09:44:57;;;;;;;;;17.00;15.33;;;;;20.46;47.47;99059.77;110431;1262;14655;-59
2022/09/28 09:47:24;;;;;;;;;17.33;16.00;;;;;20.43;47.27;99060.85;110418;1264;14490;-62
2022/09/28 09:49:54;;;;;;;;;17.00;17.00;;;;;20.49;47.25;99067.27;110461;1265;13103;-57
2022/09/28 09:52:22;;;;;;;;;20.00;16.00;;;;;20.47;47.14;99067.27;110401;1264;13399;-60
2022/09/28 09:54:49;;;;;;;;;20.33;16.33;;;;;20.53;47.12;99069.44;110405;1264;14247;-59
2022/09/28 09:57:17;;;;;;;;;16.00;13.00;;;;;20.49;47.13;99072.88;110402;1265;14623;-58
2022/09/28 09:59:44;;;;;;;;;20.00;17.33;;;;;20.33;47.32;99071.54;110376;1264;14403;-57
2022/09/28 10:02:12;;;;;;;;;22.33;17.67;;;;;20.19;47.80;99076.29;110493;1262;13342;-58
2022/09/28 10:04:39;;;;;;;;;20.00;17.00;;;;;20.24;47.92;99076.15;110475;1264;13143;-59
2022/09/28 10:07:06;;;;;;;;;23.67;17.00;;;;;20.37;47.66;99079.52;110455;1264;13381;-59
2022/09/28 10:09:34;;;;;;;;;20.00;16.00;;;;;20.39;47.44;99078.29;110451;1262;14929;-57
2022/09/28 10:12:02;;;;;;;;;18.00;16.00;;;;;20.35;47.55;99078.80;110414;1264;13313;-58
2022/09/28 10:14:29;;;;;;;;;23.67;20.33;;;;;20.41;47.56;99077.86;110417;1264;15235;-59
2022/09/28 10:16:57;;;;;;;;;22.67;21.33;;;;;20.28;47.65;99081.37;110498;1264;13110;-60
2022/09/28 10:19:24;;;;;;;;;21.67;18.00;;;;;20.22;47.99;99079.13;110445;1263;13794;-59
2022/09/28 10:21:52;;;;;;;;;21.00;19.67;;;;;20.38;47.72;99077.29;110444;1263;13360;-59
2022/09/28 10:24:19;;;;;;;;;34.00;24.50;;;;;20.44;47.55;99073.03;110439;1264;14570;-60
2022/09/28 10:26:47;;;;;;;;;33.00;27.67;;;;;20.34;47.59;99071.06;110406;1264;14369;-61
2022/09/28 10:29:14;;;;;;;;;31.00;28.67;;;;;20.35;47.68;99065.99;110500;1264;14771;-60
2022/09/28 10:31:42;;;;;;;;;32.00;27.67;;;;;20.44;47.59;99067.69;110461;1264;13176;-59
2022/09/28 10:34:09;;;;;;;;;36.50;32.00;;;;;20.51;47.49;99061.90;110442;1263;14144;-61
2022/09/28 10:36:37;;;;;;;;;32.00;27.67;;;;;20.50;47.50;99054.41;110415;1265;14789;-59
2022/09/28 10:39:04;;;;;;;;;32.33;28.67;;;;;20.51;47.51;99054.02;110414;1264;14643;-56
2022/09/28 10:41:32;;;;;;;;;35.00;29.67;;;;;20.54;47.40;99049.29;110443;1262;14802;-58
2022/09/28 10:44:06;;;;;;;;;32.00;25.50;;;;;20.55;47.27;99042.33;110475;1264;12972;-60
2022/09/28 10:46:33;;;;;;;;;33.00;27.67;;;;;20.52;46.98;99038.33;110538;1263;13271;-58
2022/09/28 10:49:01;;;;;;;;;29.33;22.33;;;;;20.55;46.80;99039.39;110435;1264;15244;-60
2022/09/28 10:51:28;;;;;;;;;30.33;26.00;;;;;20.55;46.71;99035.09;110413;1264;13513;-61
2022/09/28 10:53:56;;;;;;;;;23.67;20.67;;;;;20.52;46.70;99039.36;110423;1264;14808;-60
2022/09/28 10:56:23;;;;;;;;;26.33;21.67;;;;;20.49;46.85;99040.76;110453;1265;13893;-58
2022/09/28 10:58:51;;;;;;;;;32.00;25.00;;;;;20.49;46.97;99036.91;110456;1265;13213;-60
2022/09/28 11:01:18;;;;;;;;;26.67;20.67;;;;;20.45;47.18;99035.25;110441;1264;13648;-61
2022/09/28 11:03:46;;;;;;;;;27.00;23.00;;;;;20.48;47.20;99031.59;110432;1264;14134;-60
2022/09/28 11:06:13;;;;;;;;;26.67;19.67;;;;;20.42;47.22;99036.33;110387;1264;14231;-60
2022/09/28 11:08:41;;;;;;;;;23.33;18.00;;;;;20.38;47.19;99036.60;110388;1265;13225;-60
2022/09/28 11:11:08;;;;;;;;;27.67;25.00;;;;;20.41;46.88;99029.62;110492;1264;13163;-58
2022/09/28 11:13:36;;;;;;;;;28.00;24.00;;;;;20.43;46.59;99030.75;110427;1264;13961;-60
2022/09/28 11:16:03;;;;;;;;;24.67;21.00;;;;;20.40;46.45;99027.17;110468;1264;14166;-59
2022/09/28 11:18:31;;;;;;;;;29.00;22.33;;;;;20.41;46.39;99025.52;110425;1264;14310;-58
2022/09/28 11:20:59;;;;;;;;;24.33;21.67;;;;;20.42;46.41;99021.56;110446;1263;14626;-58
2022/09/28 11:23:26;;;;;;;;;25.00;23.00;;;;;20.18;46.70;99020.46;110450;1262;14615;-59
2022/09/28 11:25:54;;;;;;;;;27.67;21.33;;;;;20.30;46.85;99024.90;110479;1265;12984;-60